sensor_id;sensor_type;location;lat;lon;timestamp;P1;durP1;ratioP1;P2;durP2;ratioP2
5710;SDS011;61291;52.524;13.422;2022-09-29T00:00:50;62.50;;;57.50;;
5710;SDS011;61291;52.524;13.422;2022-09-29T00:03:17;64.13;;;58.70;;
5710;SDS011;61291;52.524;13.422;2022-09-29T00:05:49;63.77;;;58.90;;
5710;SDS011;61291;52.524;13.422;2022-09-29T00:08:17;64.03;;;58.73;;
5710;SDS011;61291;52.524;13.422;2022-09-29T00:10:44;65.30;;;59.70;;
5710;SDS011;61291;52.524;13.422;2022-09-29T00:13:10;56.27;;;51.57;;
5710;SDS011;61291;52.524;13.422;2022-09-29T00:15:36;65.50;;;59.93;;
5710;SDS011;61291;52.524;13.422;2022-09-29T00:18:02;64.40;;;58.77;;
5710;SDS011;61291;52.524;13.422;2022-09-29T00:20:28;64.10;;;58.80;;
5710;SDS011;61291;52.524;13.422;2022-09-29T00:22:54;63.67;;;58.30;;
5710;SDS011;61291;52.524;13.422;2022-09-29T00:25:19;63.77;;;58.53;;
5710;SDS011;61291;52.524;13.422;2022-09-29T00:27:45;64.87;;;59.13;;
5710;SDS011;61291;52.524;13.422;2022-09-29T00:30:10;66.67;;;60.77;;
5710;SDS011;61291;52.524;13.422;2022-09-29T00:32:36;66.20;;;60.07;;
5710;SDS011;61291;52.524;13.422;2022-09-29T00:35:02;67.10;;;61.50;;
5710;SDS011;61291;52.524;13.422;2022-09-29T00:37:27;65.33;;;59.53;;
5710;SDS011;61291;52.524;13.422;2022-09-29T00:39:53;65.47;;;59.50;;
5710;SDS011;61291;52.524;13.422;2022-09-29T00:42:18;65.87;;;60.07;;
5710;SDS011;61291;52.524;13.422;2022-09-29T00:47:26;68.50;;;61.90;;
5710;SDS011;61291;52.524;13.422;2022-09-29T00:50:16;66.13;;;60.60;;
5710;SDS011;61291;52.524;13.422;2022-09-29T00:52:58;65.80;;;60.00;;
5710;SDS011;61291;52.524;13.422;2022-09-29T00:55:30;67.13;;;60.90;;
5710;SDS011;61291;52.524;13.422;2022-09-29T00:58:12;68.70;;;62.00;;
5710;SDS011;61291;52.524;13.422;2022-09-29T01:01:01;69.60;;;63.13;;
5710;SDS011;61291;52.524;13.422;2022-09-29T01:03:28;68.00;;;61.33;;
5710;SDS011;61291;52.524;13.422;2022-09-29T01:05:58;69.17;;;62.67;;
5710;SDS011;61291;52.524;13.422;2022-09-29T01:08:38;69.03;;;62.37;;
5710;SDS011;61291;52.524;13.422;2022-09-29T01:11:10;72.03;;;64.40;;
5710;SDS011;61291;52.524;13.422;2022-09-29T01:13:37;71.20;;;63.77;;
5710;SDS011;61291;52.524;13.422;2022-09-29T01:16:03;69.77;;;63.30;;
5710;SDS011;61291;52.524;13.422;2022-09-29T01:18:29;71.10;;;64.30;;
5710;SDS011;61291;52.524;13.422;2022-09-29T01:20:58;70.73;;;64.20;;
5710;SDS011;61291;52.524;13.422;2022-09-29T01:23:47;72.70;;;65.30;;
5710;SDS011;61291;52.524;13.422;2022-09-29T01:26:35;71.00;;;64.40;;
5710;SDS011;61291;52.524;13.422;2022-09-29T01:32:14;71.93;;;64.40;;
5710;SDS011;61291;52.524;13.422;2022-09-29T01:35:04;73.17;;;65.87;;
5710;SDS011;61291;52.524;13.422;2022-09-29T01:37:53;72.07;;;64.93;;
5710;SDS011;61291;52.524;13.422;2022-09-29T01:40:47;68.10;;;60.97;;
5710;SDS011;61291;52.524;13.422;2022-09-29T01:43:31;69.73;;;62.93;;
5710;SDS011;61291;52.524;13.422;2022-09-29T01:46:05;68.97;;;61.87;;
5710;SDS011;61291;52.524;13.422;2022-09-29T01:48:37;69.37;;;62.77;;
5710;SDS011;61291;52.524;13.422;2022-09-29T01:51:08;69.27;;;62.07;;
5710;SDS011;61291;52.524;13.422;2022-09-29T01:53:40;72.83;;;65.23;;
5710;SDS011;61291;52.524;13.422;2022-09-29T01:56:12;67.82;;;59.58;;
5710;SDS011;61291;52.524;13.422;2022-09-29T01:58:46;77.10;;;69.23;;
5710;SDS011;61291;52.524;13.422;2022-09-29T02:01:17;73.43;;;65.80;;
5710;SDS011;61291;52.524;13.422;2022-09-29T02:03:47;72.50;;;64.80;;
5710;SDS011;61291;52.524;13.422;2022-09-29T02:06:19;75.07;;;67.27;;
5710;SDS011;61291;52.524;13.422;2022-09-29T02:08:50;79.00;;;68.57;;
5710;SDS011;61291;52.524;13.422;2022-09-29T02:11:18;86.80;;;68.47;;
5710;SDS011;61291;52.524;13.422;2022-09-29T02:13:58;74.17;;;65.73;;
5710;SDS011;61291;52.524;13.422;2022-09-29T02:16:30;76.97;;;68.67;;
5710;SDS011;61291;52.524;13.422;2022-09-29T02:19:01;81.17;;;71.50;;
5710;SDS011;61291;52.524;13.422;2022-09-29T02:21:30;84.70;;;69.87;;
5710;SDS011;61291;52.524;13.422;2022-09-29T02:23:55;78.37;;;69.93;;
5710;SDS011;61291;52.524;13.422;2022-09-29T02:26:22;80.27;;;68.90;;
5710;SDS011;61291;52.524;13.422;2022-09-29T02:28:49;77.97;;;68.93;;
5710;SDS011;61291;52.524;13.422;2022-09-29T02:31:16;85.33;;;74.10;;
5710;SDS011;61291;52.524;13.422;2022-09-29T02:33:42;79.60;;;71.30;;
5710;SDS011;61291;52.524;13.422;2022-09-29T02:36:16;79.80;;;69.30;;
5710;SDS011;61291;52.524;13.422;2022-09-29T02:41:43;78.20;;;69.10;;
5710;SDS011;61291;52.524;13.422;2022-09-29T02:44:31;84.03;;;69.50;;
5710;SDS011;61291;52.524;13.422;2022-09-29T02:50:35;80.87;;;70.80;;
5710;SDS011;61291;52.524;13.422;2022-09-29T02:53:12;80.77;;;72.20;;
5710;SDS011;61291;52.524;13.422;2022-09-29T02:55:48;81.97;;;70.00;;
5710;SDS011;61291;52.524;13.422;2022-09-29T02:58:43;76.37;;;68.60;;
5710;SDS011;61291;52.524;13.422;2022-09-29T03:01:28;82.40;;;73.37;;
5710;SDS011;61291;52.524;13.422;2022-09-29T03:03:54;80.30;;;70.83;;
5710;SDS011;61291;52.524;13.422;2022-09-29T03:06:20;76.80;;;68.53;;
5710;SDS011;61291;52.524;13.422;2022-09-29T03:08:46;80.63;;;72.00;;
5710;SDS011;61291;52.524;13.422;2022-09-29T03:11:11;80.57;;;70.83;;
5710;SDS011;61291;52.524;13.422;2022-09-29T03:13:37;80.27;;;69.00;;
5710;SDS011;61291;52.524;13.422;2022-09-29T03:16:02;78.80;;;69.80;;
5710;SDS011;61291;52.524;13.422;2022-09-29T03:18:28;79.10;;;68.80;;
5710;SDS011;61291;52.524;13.422;2022-09-29T03:20:53;78.30;;;70.20;;
5710;SDS011;61291;52.524;13.422;2022-09-29T03:23:19;79.20;;;68.80;;
5710;SDS011;61291;52.524;13.422;2022-09-29T03:25:45;76.70;;;68.43;;
5710;SDS011;61291;52.524;13.422;2022-09-29T03:28:10;85.27;;;74.10;;
5710;SDS011;61291;52.524;13.422;2022-09-29T03:30:36;80.13;;;71.77;;
5710;SDS011;61291;52.524;13.422;2022-09-29T03:33:01;79.13;;;70.83;;
5710;SDS011;61291;52.524;13.422;2022-09-29T03:35:27;79.90;;;72.07;;
5710;SDS011;61291;52.524;13.422;2022-09-29T03:37:56;78.70;;;70.60;;
5710;SDS011;61291;52.524;13.422;2022-09-29T03:40:23;81.57;;;73.10;;
5710;SDS011;61291;52.524;13.422;2022-09-29T03:42:48;79.40;;;71.60;;
5710;SDS011;61291;52.524;13.422;2022-09-29T03:45:14;79.77;;;72.00;;
5710;SDS011;61291;52.524;13.422;2022-09-29T03:47:39;76.10;;;68.80;;
5710;SDS011;61291;52.524;13.422;2022-09-29T03:50:05;74.87;;;67.13;;
5710;SDS011;61291;52.524;13.422;2022-09-29T03:52:31;79.90;;;72.27;;
5710;SDS011;61291;52.524;13.422;2022-09-29T03:54:56;76.60;;;68.83;;
5710;SDS011;61291;52.524;13.422;2022-09-29T03:57:22;76.30;;;69.00;;
5710;SDS011;61291;52.524;13.422;2022-09-29T03:59:47;76.83;;;69.30;;
5710;SDS011;61291;52.524;13.422;2022-09-29T04:02:13;76.10;;;68.80;;
5710;SDS011;61291;52.524;13.422;2022-09-29T04:04:42;80.17;;;72.63;;
5710;SDS011;61291;52.524;13.422;2022-09-29T04:07:08;77.00;;;69.53;;
5710;SDS011;61291;52.524;13.422;2022-09-29T04:09:33;75.30;;;68.40;;
5710;SDS011;61291;52.524;13.422;2022-09-29T04:11:59;79.13;;;71.20;;
5710;SDS011;61291;52.524;13.422;2022-09-29T04:14:24;83.73;;;76.00;;
5710;SDS011;61291;52.524;13.422;2022-09-29T04:16:50;82.90;;;75.30;;
5710;SDS011;61291;52.524;13.422;2022-09-29T04:19:15;80.50;;;72.77;;
5710;SDS011;61291;52.524;13.422;2022-09-29T04:21:41;80.23;;;73.03;;
5710;SDS011;61291;52.524;13.422;2022-09-29T04:24:06;81.77;;;74.47;;
5710;SDS011;61291;52.524;13.422;2022-09-29T04:26:32;79.80;;;72.67;;
5710;SDS011;61291;52.524;13.422;2022-09-29T04:28:57;78.53;;;70.83;;
5710;SDS011;61291;52.524;13.422;2022-09-29T04:31:23;70.30;;;63.37;;
5710;SDS011;61291;52.524;13.422;2022-09-29T04:33:48;73.00;;;65.90;;
5710;SDS011;61291;52.524;13.422;2022-09-29T04:36:14;75.20;;;68.47;;
5710;SDS011;61291;52.524;13.422;2022-09-29T04:38:39;79.57;;;72.20;;
5710;SDS011;61291;52.524;13.422;2022-09-29T04:41:05;76.60;;;69.73;;
5710;SDS011;61291;52.524;13.422;2022-09-29T04:43:30;81.63;;;74.33;;
5710;SDS011;61291;52.524;13.422;2022-09-29T04:46:03;78.97;;;72.07;;
5710;SDS011;61291;52.524;13.422;2022-09-29T04:48:30;81.63;;;74.20;;
5710;SDS011;61291;52.524;13.422;2022-09-29T04:50:55;78.53;;;71.33;;
5710;SDS011;61291;52.524;13.422;2022-09-29T04:53:21;78.43;;;71.70;;
5710;SDS011;61291;52.524;13.422;2022-09-29T04:55:46;72.77;;;66.07;;
5710;SDS011;61291;52.524;13.422;2022-09-29T04:58:12;79.00;;;72.30;;
5710;SDS011;61291;52.524;13.422;2022-09-29T05:00:38;78.17;;;71.30;;
5710;SDS011;61291;52.524;13.422;2022-09-29T05:03:04;82.53;;;75.57;;
5710;SDS011;61291;52.524;13.422;2022-09-29T05:05:29;83.83;;;76.93;;
5710;SDS011;61291;52.524;13.422;2022-09-29T05:07:55;84.73;;;76.90;;
5710;SDS011;61291;52.524;13.422;2022-09-29T05:10:20;87.27;;;79.50;;
5710;SDS011;61291;52.524;13.422;2022-09-29T05:12:47;79.60;;;72.73;;
5710;SDS011;61291;52.524;13.422;2022-09-29T05:15:14;80.80;;;73.43;;
5710;SDS011;61291;52.524;13.422;2022-09-29T05:17:40;81.03;;;73.97;;
5710;SDS011;61291;52.524;13.422;2022-09-29T05:20:05;88.37;;;79.03;;
5710;SDS011;61291;52.524;13.422;2022-09-29T05:22:31;77.83;;;70.70;;
5710;SDS011;61291;52.524;13.422;2022-09-29T05:24:57;81.30;;;74.70;;
5710;SDS011;61291;52.524;13.422;2022-09-29T05:27:22;80.53;;;74.27;;
5710;SDS011;61291;52.524;13.422;2022-09-29T05:29:47;75.47;;;69.37;;
5710;SDS011;61291;52.524;13.422;2022-09-29T05:32:13;81.33;;;74.00;;
5710;SDS011;61291;52.524;13.422;2022-09-29T05:34:39;79.53;;;72.43;;
5710;SDS011;61291;52.524;13.422;2022-09-29T05:37:04;63.10;;;58.00;;
5710;SDS011;61291;52.524;13.422;2022-09-29T05:39:30;82.73;;;75.70;;
5710;SDS011;61291;52.524;13.422;2022-09-29T05:41:58;78.33;;;71.43;;
5710;SDS011;61291;52.524;13.422;2022-09-29T05:44:25;78.50;;;71.93;;
5710;SDS011;61291;52.524;13.422;2022-09-29T05:46:50;80.30;;;73.87;;
5710;SDS011;61291;52.524;13.422;2022-09-29T05:49:16;83.53;;;77.13;;
5710;SDS011;61291;52.524;13.422;2022-09-29T05:51:43;83.07;;;76.20;;
5710;SDS011;61291;52.524;13.422;2022-09-29T05:54:08;79.83;;;72.53;;
5710;SDS011;61291;52.524;13.422;2022-09-29T05:56:34;75.23;;;68.93;;
5710;SDS011;61291;52.524;13.422;2022-09-29T05:59:00;77.60;;;70.47;;
5710;SDS011;61291;52.524;13.422;2022-09-29T06:01:31;75.80;;;68.83;;
5710;SDS011;61291;52.524;13.422;2022-09-29T06:03:59;78.80;;;72.50;;
5710;SDS011;61291;52.524;13.422;2022-09-29T06:06:39;74.43;;;67.37;;
5710;SDS011;61291;52.524;13.422;2022-09-29T06:09:05;77.77;;;71.70;;
5710;SDS011;61291;52.524;13.422;2022-09-29T06:11:31;76.10;;;70.00;;
5710;SDS011;61291;52.524;13.422;2022-09-29T06:14:00;71.85;;;65.75;;
5710;SDS011;61291;52.524;13.422;2022-09-29T06:16:27;76.60;;;70.57;;
5710;SDS011;61291;52.524;13.422;2022-09-29T06:18:54;80.30;;;72.90;;
5710;SDS011;61291;52.524;13.422;2022-09-29T06:21:21;80.00;;;72.77;;
5710;SDS011;61291;52.524;13.422;2022-09-29T06:23:48;80.87;;;73.97;;
5710;SDS011;61291;52.524;13.422;2022-09-29T06:26:15;81.90;;;75.30;;
5710;SDS011;61291;52.524;13.422;2022-09-29T06:28:42;77.28;;;71.05;;
5710;SDS011;61291;52.524;13.422;2022-09-29T06:31:13;82.63;;;75.90;;
5710;SDS011;61291;52.524;13.422;2022-09-29T06:33:40;78.07;;;72.10;;
5710;SDS011;61291;52.524;13.422;2022-09-29T06:36:08;80.30;;;73.17;;
5710;SDS011;61291;52.524;13.422;2022-09-29T06:38:59;80.97;;;74.77;;
5710;SDS011;61291;52.524;13.422;2022-09-29T06:41:25;80.97;;;74.60;;
5710;SDS011;61291;52.524;13.422;2022-09-29T06:43:52;77.10;;;70.70;;
5710;SDS011;61291;52.524;13.422;2022-09-29T06:46:18;77.67;;;70.97;;
5710;SDS011;61291;52.524;13.422;2022-09-29T06:48:43;79.23;;;72.53;;
5710;SDS011;61291;52.524;13.422;2022-09-29T06:51:09;78.10;;;71.03;;
5710;SDS011;61291;52.524;13.422;2022-09-29T06:53:35;76.60;;;70.13;;
5710;SDS011;61291;52.524;13.422;2022-09-29T06:56:01;81.40;;;74.43;;
5710;SDS011;61291;52.524;13.422;2022-09-29T06:58:27;82.10;;;74.93;;
5710;SDS011;61291;52.524;13.422;2022-09-29T07:00:53;76.97;;;70.50;;
5710;SDS011;61291;52.524;13.422;2022-09-29T07:03:19;75.40;;;69.10;;
5710;SDS011;61291;52.524;13.422;2022-09-29T07:05:45;75.97;;;69.37;;
5710;SDS011;61291;52.524;13.422;2022-09-29T07:08:11;75.80;;;68.90;;
5710;SDS011;61291;52.524;13.422;2022-09-29T07:10:36;80.60;;;73.50;;
5710;SDS011;61291;52.524;13.422;2022-09-29T07:13:02;81.77;;;74.43;;
5710;SDS011;61291;52.524;13.422;2022-09-29T07:15:27;80.10;;;73.10;;
5710;SDS011;61291;52.524;13.422;2022-09-29T07:17:55;76.63;;;69.63;;
5710;SDS011;61291;52.524;13.422;2022-09-29T07:20:23;76.77;;;70.37;;
5710;SDS011;61291;52.524;13.422;2022-09-29T07:22:49;78.83;;;72.03;;
5710;SDS011;61291;52.524;13.422;2022-09-29T07:25:14;79.70;;;71.20;;
5710;SDS011;61291;52.524;13.422;2022-09-29T07:27:40;79.87;;;73.07;;
5710;SDS011;61291;52.524;13.422;2022-09-29T07:30:05;79.53;;;72.27;;
5710;SDS011;61291;52.524;13.422;2022-09-29T07:32:32;77.03;;;70.33;;
5710;SDS011;61291;52.524;13.422;2022-09-29T07:34:57;77.43;;;70.13;;
5710;SDS011;61291;52.524;13.422;2022-09-29T07:37:24;82.33;;;74.57;;
5710;SDS011;61291;52.524;13.422;2022-09-29T07:39:49;82.13;;;74.93;;
5710;SDS011;61291;52.524;13.422;2022-09-29T07:42:16;76.43;;;68.97;;
5710;SDS011;61291;52.524;13.422;2022-09-29T07:44:42;85.40;;;77.90;;
5710;SDS011;61291;52.524;13.422;2022-09-29T07:47:07;80.27;;;73.03;;
5710;SDS011;61291;52.524;13.422;2022-09-29T07:49:33;86.70;;;79.07;;
5710;SDS011;61291;52.524;13.422;2022-09-29T07:51:59;82.87;;;74.93;;
5710;SDS011;61291;52.524;13.422;2022-09-29T07:54:24;83.40;;;76.00;;
5710;SDS011;61291;52.524;13.422;2022-09-29T07:56:50;83.00;;;75.40;;
5710;SDS011;61291;52.524;13.422;2022-09-29T07:59:15;81.57;;;74.67;;
5710;SDS011;61291;52.524;13.422;2022-09-29T08:01:41;79.70;;;72.90;;
5710;SDS011;61291;52.524;13.422;2022-09-29T08:04:06;83.93;;;77.23;;
5710;SDS011;61291;52.524;13.422;2022-09-29T08:06:32;74.47;;;67.50;;
5710;SDS011;61291;52.524;13.422;2022-09-29T08:08:58;75.43;;;68.50;;
5710;SDS011;61291;52.524;13.422;2022-09-29T08:11:24;75.70;;;68.50;;
5710;SDS011;61291;52.524;13.422;2022-09-29T08:13:50;77.47;;;70.13;;
5710;SDS011;61291;52.524;13.422;2022-09-29T08:16:19;79.07;;;71.93;;
5710;SDS011;61291;52.524;13.422;2022-09-29T08:18:44;79.57;;;72.07;;
5710;SDS011;61291;52.524;13.422;2022-09-29T08:21:10;78.63;;;71.60;;
5710;SDS011;61291;52.524;13.422;2022-09-29T08:23:37;77.23;;;70.30;;
5710;SDS011;61291;52.524;13.422;2022-09-29T08:26:05;80.90;;;74.10;;
5710;SDS011;61291;52.524;13.422;2022-09-29T08:28:35;78.90;;;71.87;;
5710;SDS011;61291;52.524;13.422;2022-09-29T08:31:03;78.13;;;71.20;;
5710;SDS011;61291;52.524;13.422;2022-09-29T08:33:32;85.20;;;78.00;;
5710;SDS011;61291;52.524;13.422;2022-09-29T08:35:58;84.30;;;77.13;;
5710;SDS011;61291;52.524;13.422;2022-09-29T08:38:24;84.77;;;77.03;;
5710;SDS011;61291;52.524;13.422;2022-09-29T08:40:50;82.47;;;74.87;;
5710;SDS011;61291;52.524;13.422;2022-09-29T08:43:18;79.37;;;72.20;;
5710;SDS011;61291;52.524;13.422;2022-09-29T08:45:58;74.18;;;66.88;;
5710;SDS011;61291;52.524;13.422;2022-09-29T08:48:30;76.87;;;69.63;;
5710;SDS011;61291;52.524;13.422;2022-09-29T08:51:03;74.80;;;68.27;;
5710;SDS011;61291;52.524;13.422;2022-09-29T08:53:33;71.87;;;65.00;;
5710;SDS011;61291;52.524;13.422;2022-09-29T08:56:05;73.37;;;66.60;;
5710;SDS011;61291;52.524;13.422;2022-09-29T08:58:33;74.17;;;67.60;;
5710;SDS011;61291;52.524;13.422;2022-09-29T09:06:53;72.70;;;66.60;;
5710;SDS011;61291;52.524;13.422;2022-09-29T09:09:37;72.73;;;65.23;;
5710;SDS011;61291;52.524;13.422;2022-09-29T09:12:16;70.67;;;64.17;;
5710;SDS011;61291;52.524;13.422;2022-09-29T09:26:20;72.63;;;65.87;;
5710;SDS011;61291;52.524;13.422;2022-09-29T09:29:04;72.13;;;64.70;;
5710;SDS011;61291;52.524;13.422;2022-09-29T09:32:01;68.23;;;61.40;;
5710;SDS011;61291;52.524;13.422;2022-09-29T09:34:34;70.47;;;63.60;;
5710;SDS011;61291;52.524;13.422;2022-09-29T09:37:07;71.47;;;65.13;;
5710;SDS011;61291;52.524;13.422;2022-09-29T09:39:50;73.67;;;66.87;;
5710;SDS011;61291;52.524;13.422;2022-09-29T09:42:26;70.63;;;64.20;;
5710;SDS011;61291;52.524;13.422;2022-09-29T09:44:59;73.37;;;67.07;;
5710;SDS011;61291;52.524;13.422;2022-09-29T09:47:47;73.97;;;67.47;;
5710;SDS011;61291;52.524;13.422;2022-09-29T09:50:16;73.67;;;66.93;;
5710;SDS011;61291;52.524;13.422;2022-09-29T09:52:45;72.13;;;65.63;;
5710;SDS011;61291;52.524;13.422;2022-09-29T09:55:24;77.77;;;70.87;;
5710;SDS011;61291;52.524;13.422;2022-09-29T10:01:00;72.17;;;65.70;;
5710;SDS011;61291;52.524;13.422;2022-09-29T10:03:31;72.77;;;65.80;;
5710;SDS011;61291;52.524;13.422;2022-09-29T10:05:57;73.63;;;67.40;;
5710;SDS011;61291;52.524;13.422;2022-09-29T10:08:27;79.07;;;72.10;;
5710;SDS011;61291;52.524;13.422;2022-09-29T10:10:55;72.33;;;65.73;;
5710;SDS011;61291;52.524;13.422;2022-09-29T10:13:23;74.33;;;67.90;;
5710;SDS011;61291;52.524;13.422;2022-09-29T10:18:25;72.37;;;66.07;;
5710;SDS011;61291;52.524;13.422;2022-09-29T10:24:02;68.90;;;62.10;;
5710;SDS011;61291;52.524;13.422;2022-09-29T10:26:39;75.47;;;68.93;;
5710;SDS011;61291;52.524;13.422;2022-09-29T10:34:39;70.30;;;64.03;;
5710;SDS011;61291;52.524;13.422;2022-09-29T10:37:21;69.43;;;63.20;;
5710;SDS011;61291;52.524;13.422;2022-09-29T10:42:40;64.33;;;58.77;;
5710;SDS011;61291;52.524;13.422;2022-09-29T10:45:14;66.47;;;60.43;;
5710;SDS011;61291;52.524;13.422;2022-09-29T10:47:45;68.87;;;62.77;;
5710;SDS011;61291;52.524;13.422;2022-09-29T10:50:31;68.80;;;62.93;;
5710;SDS011;61291;52.524;13.422;2022-09-29T10:53:00;68.13;;;62.00;;
5710;SDS011;61291;52.524;13.422;2022-09-29T10:55:29;70.37;;;64.87;;
5710;SDS011;61291;52.524;13.422;2022-09-29T10:57:58;66.07;;;60.37;;
5710;SDS011;61291;52.524;13.422;2022-09-29T11:00:28;69.10;;;63.20;;
5710;SDS011;61291;52.524;13.422;2022-09-29T11:03:18;73.07;;;67.20;;
5710;SDS011;61291;52.524;13.422;2022-09-29T11:05:51;75.63;;;69.63;;
5710;SDS011;61291;52.524;13.422;2022-09-29T11:08:19;71.97;;;66.07;;
5710;SDS011;61291;52.524;13.422;2022-09-29T11:10:52;71.23;;;65.60;;
5710;SDS011;61291;52.524;13.422;2022-09-29T11:13:33;69.30;;;63.70;;
5710;SDS011;61291;52.524;13.422;2022-09-29T11:16:13;68.13;;;61.93;;
5710;SDS011;61291;52.524;13.422;2022-09-29T11:18:42;66.90;;;61.40;;
5710;SDS011;61291;52.524;13.422;2022-09-29T11:21:21;71.67;;;65.80;;
5710;SDS011;61291;52.524;13.422;2022-09-29T11:30:06;72.43;;;66.20;;
5710;SDS011;61291;52.524;13.422;2022-09-29T11:32:46;70.97;;;64.87;;
5710;SDS011;61291;52.524;13.422;2022-09-29T11:38:56;77.83;;;71.53;;
5710;SDS011;61291;52.524;13.422;2022-09-29T11:41:49;73.47;;;67.53;;
5710;SDS011;61291;52.524;13.422;2022-09-29T11:47:33;69.03;;;63.13;;
5710;SDS011;61291;52.524;13.422;2022-09-29T11:50:18;71.40;;;65.40;;
5710;SDS011;61291;52.524;13.422;2022-09-29T11:55:50;71.23;;;65.90;;
5710;SDS011;61291;52.524;13.422;2022-09-29T12:02:03;72.40;;;66.80;;
5710;SDS011;61291;52.524;13.422;2022-09-29T12:06:40;68.33;;;62.80;;
5710;SDS011;61291;52.524;13.422;2022-09-29T12:09:18;71.67;;;66.27;;
5710;SDS011;61291;52.524;13.422;2022-09-29T12:17:32;69.00;;;63.50;;
5710;SDS011;61291;52.524;13.422;2022-09-29T12:20:11;70.20;;;65.10;;
5710;SDS011;61291;52.524;13.422;2022-09-29T12:22:43;70.53;;;64.63;;
5710;SDS011;61291;52.524;13.422;2022-09-29T12:25:15;76.60;;;70.80;;
5710;SDS011;61291;52.524;13.422;2022-09-29T12:27:43;71.03;;;65.30;;
5710;SDS011;61291;52.524;13.422;2022-09-29T12:30:26;74.07;;;67.70;;
5710;SDS011;61291;52.524;13.422;2022-09-29T12:33:19;68.10;;;63.00;;
5710;SDS011;61291;52.524;13.422;2022-09-29T12:38:25;70.43;;;64.80;;
5710;SDS011;61291;52.524;13.422;2022-09-29T12:41:03;72.90;;;66.90;;
5710;SDS011;61291;52.524;13.422;2022-09-29T12:46:34;70.70;;;65.20;;
5710;SDS011;61291;52.524;13.422;2022-09-29T12:49:13;71.23;;;65.80;;
5710;SDS011;61291;52.524;13.422;2022-09-29T12:52:00;67.27;;;62.17;;
5710;SDS011;61291;52.524;13.422;2022-09-29T12:54:31;74.40;;;68.80;;
5710;SDS011;61291;52.524;13.422;2022-09-29T12:57:11;69.40;;;63.60;;
5710;SDS011;61291;52.524;13.422;2022-09-29T12:59:48;68.70;;;63.40;;
5710;SDS011;61291;52.524;13.422;2022-09-29T13:08:26;70.40;;;65.00;;
5710;SDS011;61291;52.524;13.422;2022-09-29T13:14:05;66.87;;;61.13;;
5710;SDS011;61291;52.524;13.422;2022-09-29T13:16:58;75.00;;;68.80;;
5710;SDS011;61291;52.524;13.422;2022-09-29T13:19:39;67.97;;;62.10;;
5710;SDS011;61291;52.524;13.422;2022-09-29T13:22:20;71.17;;;65.33;;
5710;SDS011;61291;52.524;13.422;2022-09-29T13:24:56;80.07;;;73.73;;
5710;SDS011;61291;52.524;13.422;2022-09-29T13:27:37;70.20;;;64.70;;
5710;SDS011;61291;52.524;13.422;2022-09-29T13:30:13;70.30;;;65.10;;
5710;SDS011;61291;52.524;13.422;2022-09-29T13:32:47;67.10;;;61.80;;
5710;SDS011;61291;52.524;13.422;2022-09-29T13:35:17;72.03;;;66.57;;
5710;SDS011;61291;52.524;13.422;2022-09-29T13:37:49;64.70;;;58.83;;
5710;SDS011;61291;52.524;13.422;2022-09-29T13:40:21;63.23;;;58.63;;
5710;SDS011;61291;52.524;13.422;2022-09-29T13:42:55;65.20;;;60.20;;
5710;SDS011;61291;52.524;13.422;2022-09-29T13:55:53;67.07;;;61.90;;
5710;SDS011;61291;52.524;13.422;2022-09-29T13:58:24;66.50;;;61.30;;
5710;SDS011;61291;52.524;13.422;2022-09-29T14:00:51;60.70;;;55.90;;
5710;SDS011;61291;52.524;13.422;2022-09-29T14:03:26;63.17;;;58.07;;
5710;SDS011;61291;52.524;13.422;2022-09-29T14:06:12;66.87;;;61.63;;
5710;SDS011;61291;52.524;13.422;2022-09-29T14:11:31;69.83;;;64.20;;
5710;SDS011;61291;52.524;13.422;2022-09-29T14:14:05;68.23;;;62.40;;
5710;SDS011;61291;52.524;13.422;2022-09-29T14:16:44;67.73;;;62.53;;
5710;SDS011;61291;52.524;13.422;2022-09-29T14:24:54;69.00;;;64.10;;
5710;SDS011;61291;52.524;13.422;2022-09-29T14:27:32;69.87;;;64.60;;
5710;SDS011;61291;52.524;13.422;2022-09-29T14:30:05;63.37;;;58.37;;
5710;SDS011;61291;52.524;13.422;2022-09-29T14:33:00;64.93;;;59.83;;
5710;SDS011;61291;52.524;13.422;2022-09-29T14:35:34;60.80;;;56.23;;
5710;SDS011;61291;52.524;13.422;2022-09-29T14:40:58;62.93;;;58.03;;
5710;SDS011;61291;52.524;13.422;2022-09-29T14:43:38;71.47;;;65.13;;
5710;SDS011;61291;52.524;13.422;2022-09-29T14:55:20;62.57;;;57.77;;
5710;SDS011;61291;52.524;13.422;2022-09-29T14:58:05;63.13;;;58.63;;
5710;SDS011;61291;52.524;13.422;2022-09-29T15:01:05;62.67;;;58.17;;
5710;SDS011;61291;52.524;13.422;2022-09-29T15:03:49;66.33;;;61.53;;
5710;SDS011;61291;52.524;13.422;2022-09-29T15:06:17;61.17;;;56.27;;
5710;SDS011;61291;52.524;13.422;2022-09-29T15:08:52;61.43;;;56.90;;
5710;SDS011;61291;52.524;13.422;2022-09-29T15:11:35;62.63;;;57.83;;
5710;SDS011;61291;52.524;13.422;2022-09-29T15:14:15;60.70;;;56.20;;
5710;SDS011;61291;52.524;13.422;2022-09-29T15:19:39;60.07;;;55.27;;
5710;SDS011;61291;52.524;13.422;2022-09-29T15:22:41;62.10;;;57.40;;
5710;SDS011;61291;52.524;13.422;2022-09-29T15:25:24;54.33;;;50.53;;
5710;SDS011;61291;52.524;13.422;2022-09-29T15:28:01;59.17;;;54.87;;
5710;SDS011;61291;52.524;13.422;2022-09-29T15:30:36;58.77;;;54.37;;
5710;SDS011;61291;52.524;13.422;2022-09-29T15:33:06;58.13;;;53.83;;
5710;SDS011;61291;52.524;13.422;2022-09-29T15:35:56;60.23;;;55.67;;
5710;SDS011;61291;52.524;13.422;2022-09-29T15:38:26;64.30;;;59.90;;
5710;SDS011;61291;52.524;13.422;2022-09-29T15:40:57;66.60;;;61.80;;
5710;SDS011;61291;52.524;13.422;2022-09-29T15:43:41;67.50;;;62.40;;
5710;SDS011;61291;52.524;13.422;2022-09-29T15:46:19;62.13;;;57.50;;
5710;SDS011;61291;52.524;13.422;2022-09-29T15:49:09;62.50;;;57.40;;
5710;SDS011;61291;52.524;13.422;2022-09-29T15:51:37;62.10;;;57.40;;
5710;SDS011;61291;52.524;13.422;2022-09-29T15:54:04;60.83;;;56.43;;
5710;SDS011;61291;52.524;13.422;2022-09-29T15:56:34;59.33;;;54.80;;
5710;SDS011;61291;52.524;13.422;2022-09-29T15:59:30;51.63;;;47.63;;
5710;SDS011;61291;52.524;13.422;2022-09-29T16:02:03;59.83;;;55.03;;
5710;SDS011;61291;52.524;13.422;2022-09-29T16:04:30;60.40;;;55.90;;
5710;SDS011;61291;52.524;13.422;2022-09-29T16:06:57;60.00;;;55.87;;
5710;SDS011;61291;52.524;13.422;2022-09-29T16:09:22;61.90;;;56.87;;
5710;SDS011;61291;52.524;13.422;2022-09-29T16:11:48;56.77;;;52.57;;
5710;SDS011;61291;52.524;13.422;2022-09-29T16:14:24;60.03;;;55.63;;
5710;SDS011;61291;52.524;13.422;2022-09-29T16:16:52;58.30;;;54.13;;
5710;SDS011;61291;52.524;13.422;2022-09-29T16:19:25;57.87;;;53.47;;
5710;SDS011;61291;52.524;13.422;2022-09-29T16:21:56;60.43;;;56.23;;
5710;SDS011;61291;52.524;13.422;2022-09-29T16:24:26;61.47;;;57.00;;
5710;SDS011;61291;52.524;13.422;2022-09-29T16:26:58;57.90;;;53.87;;
5710;SDS011;61291;52.524;13.422;2022-09-29T16:29:25;56.30;;;52.10;;
5710;SDS011;61291;52.524;13.422;2022-09-29T16:31:54;56.10;;;52.20;;
5710;SDS011;61291;52.524;13.422;2022-09-29T16:36:50;53.83;;;50.23;;
5710;SDS011;61291;52.524;13.422;2022-09-29T16:39:18;57.30;;;53.30;;
5710;SDS011;61291;52.524;13.422;2022-09-29T16:41:47;57.17;;;53.17;;
5710;SDS011;61291;52.524;13.422;2022-09-29T16:44:24;58.47;;;54.20;;
5710;SDS011;61291;52.524;13.422;2022-09-29T16:49:52;59.43;;;55.13;;
5710;SDS011;61291;52.524;13.422;2022-09-29T16:52:20;58.80;;;54.60;;